sensor_id;sensor_type;location;lat;lon;timestamp;temperature;humidity
9861;DHT22;4969;52.304;4.968;2023-07-31T00:02:17;19.42;78.85
9861;DHT22;4969;52.304;4.968;2023-07-31T00:04:44;19.44;79.11
9861;DHT22;4969;52.304;4.968;2023-07-31T00:07:11;19.63;78.45
9861;DHT22;4969;52.304;4.968;2023-07-31T00:09:37;19.54;78.96
9861;DHT22;4969;52.304;4.968;2023-07-31T00:12:06;19.57;78.28
9861;DHT22;4969;52.304;4.968;2023-07-31T00:14:33;19.68;77.55
9861;DHT22;4969;52.304;4.968;2023-07-31T00:17:00;19.44;79.06
9861;DHT22;4969;52.304;4.968;2023-07-31T00:19:26;19.34;79.41
9861;DHT22;4969;52.304;4.968;2023-07-31T00:21:53;19.27;80.07
9861;DHT22;4969;52.304;4.968;2023-07-31T00:24:19;19.04;80.54
9861;DHT22;4969;52.304;4.968;2023-07-31T00:26:46;18.83;81.27
9861;DHT22;4969;52.304;4.968;2023-07-31T00:29:14;19.28;80.65
9861;DHT22;4969;52.304;4.968;2023-07-31T00:31:40;19.22;80.22
9861;DHT22;4969;52.304;4.968;2023-07-31T00:34:07;19.14;80.48
9861;DHT22;4969;52.304;4.968;2023-07-31T00:36:33;19.26;80.64
9861;DHT22;4969;52.304;4.968;2023-07-31T00:39:00;19.47;78.85
9861;DHT22;4969;52.304;4.968;2023-07-31T00:41:27;19.59;78.79
9861;DHT22;4969;52.304;4.968;2023-07-31T00:43:53;19.58;78.57
9861;DHT22;4969;52.304;4.968;2023-07-31T00:46:21;18.97;80.44
9861;DHT22;4969;52.304;4.968;2023-07-31T00:48:48;19.03;80.67
9861;DHT22;4969;52.304;4.968;2023-07-31T00:51:15;18.97;81.57
9861;DHT22;4969;52.304;4.968;2023-07-31T00:53:42;19.28;80.84
9861;DHT22;4969;52.304;4.968;2023-07-31T00:56:10;19.23;80.70
9861;DHT22;4969;52.304;4.968;2023-07-31T00:58:37;19.37;80.27
9861;DHT22;4969;52.304;4.968;2023-07-31T01:01:03;19.35;79.93
9861;DHT22;4969;52.304;4.968;2023-07-31T01:03:32;19.76;79.00
9861;DHT22;4969;52.304;4.968;2023-07-31T01:06:08;19.69;78.95
9861;DHT22;4969;52.304;4.968;2023-07-31T01:08:41;19.62;78.99
9861;DHT22;4969;52.304;4.968;2023-07-31T01:11:14;19.55;78.68
9861;DHT22;4969;52.304;4.968;2023-07-31T01:13:42;19.26;80.46
9861;DHT22;4969;52.304;4.968;2023-07-31T01:16:09;19.24;80.52
9861;DHT22;4969;52.304;4.968;2023-07-31T01:18:37;19.37;79.67
9861;DHT22;4969;52.304;4.968;2023-07-31T01:21:13;19.37;79.97
9861;DHT22;4969;52.304;4.968;2023-07-31T01:24:07;19.27;80.10
9861;DHT22;4969;52.304;4.968;2023-07-31T01:26:38;19.22;80.08
9861;DHT22;4969;52.304;4.968;2023-07-31T01:29:10;19.06;80.95
9861;DHT22;4969;52.304;4.968;2023-07-31T01:31:42;19.26;80.58
9861;DHT22;4969;52.304;4.968;2023-07-31T01:34:10;19.58;79.36
9861;DHT22;4969;52.304;4.968;2023-07-31T01:36:37;19.44;79.51
9861;DHT22;4969;52.304;4.968;2023-07-31T01:39:04;19.63;79.31
9861;DHT22;4969;52.304;4.968;2023-07-31T01:41:30;19.38;80.26
9861;DHT22;4969;52.304;4.968;2023-07-31T01:43:58;19.42;80.01
9861;DHT22;4969;52.304;4.968;2023-07-31T01:46:25;19.57;79.83
9861;DHT22;4969;52.304;4.968;2023-07-31T01:48:52;19.35;80.09
9861;DHT22;4969;52.304;4.968;2023-07-31T01:51:18;19.37;79.86
9861;DHT22;4969;52.304;4.968;2023-07-31T01:53:45;19.80;78.50
9861;DHT22;4969;52.304;4.968;2023-07-31T01:56:11;19.79;78.24
9861;DHT22;4969;52.304;4.968;2023-07-31T01:58:38;19.45;78.93
9861;DHT22;4969;52.304;4.968;2023-07-31T02:01:06;19.33;79.54
9861;DHT22;4969;52.304;4.968;2023-07-31T02:03:32;19.34;79.62
9861;DHT22;4969;52.304;4.968;2023-07-31T02:05:59;19.59;79.23
9861;DHT22;4969;52.304;4.968;2023-07-31T02:08:26;19.51;79.28
9861;DHT22;4969;52.304;4.968;2023-07-31T02:10:53;19.63;78.77
9861;DHT22;4969;52.304;4.968;2023-07-31T02:13:20;19.61;78.90
9861;DHT22;4969;52.304;4.968;2023-07-31T02:15:47;19.59;79.64
9861;DHT22;4969;52.304;4.968;2023-07-31T02:18:15;19.72;78.82
9861;DHT22;4969;52.304;4.968;2023-07-31T02:20:41;20.02;77.43
9861;DHT22;4969;52.304;4.968;2023-07-31T02:23:08;19.68;78.45
9861;DHT22;4969;52.304;4.968;2023-07-31T02:25:35;19.85;77.91
9861;DHT22;4969;52.304;4.968;2023-07-31T02:28:01;19.75;78.62
9861;DHT22;4969;52.304;4.968;2023-07-31T02:30:28;19.79;78.57
9861;DHT22;4969;52.304;4.968;2023-07-31T02:32:55;19.62;78.89
9861;DHT22;4969;52.304;4.968;2023-07-31T02:35:22;19.93;77.88
9861;DHT22;4969;52.304;4.968;2023-07-31T02:37:49;19.82;77.89
9861;DHT22;4969;52.304;4.968;2023-07-31T02:40:16;19.99;77.50
9861;DHT22;4969;52.304;4.968;2023-07-31T02:42:43;19.55;78.83
9861;DHT22;4969;52.304;4.968;2023-07-31T02:45:09;19.47;79.12
9861;DHT22;4969;52.304;4.968;2023-07-31T02:47:36;19.75;78.31
9861;DHT22;4969;52.304;4.968;2023-07-31T02:50:03;19.59;78.36
9861;DHT22;4969;52.304;4.968;2023-07-31T02:52:31;19.89;77.47
9861;DHT22;4969;52.304;4.968;2023-07-31T02:54:58;19.80;76.83
9861;DHT22;4969;52.304;4.968;2023-07-31T02:57:25;20.05;77.41
9861;DHT22;4969;52.304;4.968;2023-07-31T02:59:51;19.73;77.80
9861;DHT22;4969;52.304;4.968;2023-07-31T03:02:18;19.80;77.62
9861;DHT22;4969;52.304;4.968;2023-07-31T03:04:44;19.76;78.00
9861;DHT22;4969;52.304;4.968;2023-07-31T03:07:11;19.79;77.63
9861;DHT22;4969;52.304;4.968;2023-07-31T03:09:39;19.92;77.29
9861;DHT22;4969;52.304;4.968;2023-07-31T03:12:07;20.05;76.66
9861;DHT22;4969;52.304;4.968;2023-07-31T03:14:33;19.92;77.35
9861;DHT22;4969;52.304;4.968;2023-07-31T03:17:00;19.86;77.31
9861;DHT22;4969;52.304;4.968;2023-07-31T03:19:27;20.13;76.85
9861;DHT22;4969;52.304;4.968;2023-07-31T03:21:56;20.30;76.29
9861;DHT22;4969;52.304;4.968;2023-07-31T03:24:22;20.06;76.65
9861;DHT22;4969;52.304;4.968;2023-07-31T03:26:50;20.00;76.39
9861;DHT22;4969;52.304;4.968;2023-07-31T03:29:17;20.26;76.11
9861;DHT22;4969;52.304;4.968;2023-07-31T03:31:43;20.30;75.00
9861;DHT22;4969;52.304;4.968;2023-07-31T03:34:10;19.86;76.72
9861;DHT22;4969;52.304;4.968;2023-07-31T03:36:37;19.69;77.91
9861;DHT22;4969;52.304;4.968;2023-07-31T03:39:03;19.66;77.74
9861;DHT22;4969;52.304;4.968;2023-07-31T03:41:30;19.52;77.68
9861;DHT22;4969;52.304;4.968;2023-07-31T03:43:58;19.89;77.37
9861;DHT22;4969;52.304;4.968;2023-07-31T03:46:25;19.97;77.23
9861;DHT22;4969;52.304;4.968;2023-07-31T03:48:51;19.83;76.17
9861;DHT22;4969;52.304;4.968;2023-07-31T03:51:18;19.92;76.44
9861;DHT22;4969;52.304;4.968;2023-07-31T03:53:44;19.99;76.77
9861;DHT22;4969;52.304;4.968;2023-07-31T03:56:11;20.38;74.93
9861;DHT22;4969;52.304;4.968;2023-07-31T03:58:38;20.07;75.70
9861;DHT22;4969;52.304;4.968;2023-07-31T04:01:06;20.41;75.04
9861;DHT22;4969;52.304;4.968;2023-07-31T04:03:32;20.59;73.90
9861;DHT22;4969;52.304;4.968;2023-07-31T04:05:59;20.55;74.44
9861;DHT22;4969;52.304;4.968;2023-07-31T04:08:25;20.13;75.27
9861;DHT22;4969;52.304;4.968;2023-07-31T04:10:52;20.31;74.67
9861;DHT22;4969;52.304;4.968;2023-07-31T04:13:19;20.90;72.83
9861;DHT22;4969;52.304;4.968;2023-07-31T04:15:48;20.92;73.13
9861;DHT22;4969;52.304;4.968;2023-07-31T04:18:17;20.79;73.46
9861;DHT22;4969;52.304;4.968;2023-07-31T04:20:43;20.59;73.68
9861;DHT22;4969;52.304;4.968;2023-07-31T04:23:10;20.43;74.59
9861;DHT22;4969;52.304;4.968;2023-07-31T04:25:37;20.31;74.49
9861;DHT22;4969;52.304;4.968;2023-07-31T04:28:04;19.99;76.17
9861;DHT22;4969;52.304;4.968;2023-07-31T04:30:30;19.97;75.60
9861;DHT22;4969;52.304;4.968;2023-07-31T04:32:57;20.14;75.99
9861;DHT22;4969;52.304;4.968;2023-07-31T04:35:25;20.52;74.90
9861;DHT22;4969;52.304;4.968;2023-07-31T04:37:51;20.47;74.92
9861;DHT22;4969;52.304;4.968;2023-07-31T04:40:18;20.67;73.28
9861;DHT22;4969;52.304;4.968;2023-07-31T04:42:44;20.86;73.62
9861;DHT22;4969;52.304;4.968;2023-07-31T04:45:11;20.73;73.83
9861;DHT22;4969;52.304;4.968;2023-07-31T04:47:38;20.38;74.80
9861;DHT22;4969;52.304;4.968;2023-07-31T04:50:05;20.40;74.69
9861;DHT22;4969;52.304;4.968;2023-07-31T04:52:33;20.26;75.65
9861;DHT22;4969;52.304;4.968;2023-07-31T04:55:00;20.52;75.37
9861;DHT22;4969;52.304;4.968;2023-07-31T04:57:27;20.88;74.03
9861;DHT22;4969;52.304;4.968;2023-07-31T04:59:52;20.95;73.40
9861;DHT22;4969;52.304;4.968;2023-07-31T05:02:19;20.99;73.21
9861;DHT22;4969;52.304;4.968;2023-07-31T05:04:46;20.83;73.86
9861;DHT22;4969;52.304;4.968;2023-07-31T05:07:12;20.93;73.74
9861;DHT22;4969;52.304;4.968;2023-07-31T05:09:40;20.75;73.87
9861;DHT22;4969;52.304;4.968;2023-07-31T05:12:07;20.93;73.21
9861;DHT22;4969;52.304;4.968;2023-07-31T05:14:34;21.07;73.35
9861;DHT22;4969;52.304;4.968;2023-07-31T05:17:01;21.11;72.75
9861;DHT22;4969;52.304;4.968;2023-07-31T05:19:27;21.02;72.72
9861;DHT22;4969;52.304;4.968;2023-07-31T05:21:54;21.18;73.09
9861;DHT22;4969;52.304;4.968;2023-07-31T05:24:20;21.45;72.10
9861;DHT22;4969;52.304;4.968;2023-07-31T05:26:48;21.45;71.93
9861;DHT22;4969;52.304;4.968;2023-07-31T05:29:15;21.92;70.33
9861;DHT22;4969;52.304;4.968;2023-07-31T05:31:42;21.91;70.28
9861;DHT22;4969;52.304;4.968;2023-07-31T05:34:08;21.41;71.13
9861;DHT22;4969;52.304;4.968;2023-07-31T05:36:35;21.37;71.29
9861;DHT22;4969;52.304;4.968;2023-07-31T05:39:02;20.89;73.14
9861;DHT22;4969;52.304;4.968;2023-07-31T05:41:32;21.10;72.79
9861;DHT22;4969;52.304;4.968;2023-07-31T05:44:01;21.23;72.02
9861;DHT22;4969;52.304;4.968;2023-07-31T05:46:27;21.24;71.55
9861;DHT22;4969;52.304;4.968;2023-07-31T05:48:54;21.65;70.53
9861;DHT22;4969;52.304;4.968;2023-07-31T05:51:21;21.17;71.27
9861;DHT22;4969;52.304;4.968;2023-07-31T05:53:47;21.17;72.25
9861;DHT22;4969;52.304;4.968;2023-07-31T05:56:14;21.20;71.44
9861;DHT22;4969;52.304;4.968;2023-07-31T05:58:41;21.20;71.12
9861;DHT22;4969;52.304;4.968;2023-07-31T06:01:08;21.09;73.00
9861;DHT22;4969;52.304;4.968;2023-07-31T06:03:35;21.18;72.39
9861;DHT22;4969;52.304;4.968;2023-07-31T06:06:02;21.24;72.14
9861;DHT22;4969;52.304;4.968;2023-07-31T06:08:28;21.10;71.98
9861;DHT22;4969;52.304;4.968;2023-07-31T06:10:56;21.14;72.27
9861;DHT22;4969;52.304;4.968;2023-07-31T06:13:22;21.28;71.43
9861;DHT22;4969;52.304;4.968;2023-07-31T06:15:49;21.18;72.36
9861;DHT22;4969;52.304;4.968;2023-07-31T06:18:17;21.16;72.27
9861;DHT22;4969;52.304;4.968;2023-07-31T06:20:44;21.10;72.68
9861;DHT22;4969;52.304;4.968;2023-07-31T06:23:10;21.51;71.05
9861;DHT22;4969;52.304;4.968;2023-07-31T06:25:37;21.66;70.91
9861;DHT22;4969;52.304;4.968;2023-07-31T06:28:03;21.96;70.04
9861;DHT22;4969;52.304;4.968;2023-07-31T06:30:30;21.45;70.80
9861;DHT22;4969;52.304;4.968;2023-07-31T06:32:57;21.28;71.94
9861;DHT22;4969;52.304;4.968;2023-07-31T06:35:25;21.71;70.84
9861;DHT22;4969;52.304;4.968;2023-07-31T06:37:51;21.54;70.81
9861;DHT22;4969;52.304;4.968;2023-07-31T06:40:18;21.43;71.65
9861;DHT22;4969;52.304;4.968;2023-07-31T06:42:45;21.07;71.78
9861;DHT22;4969;52.304;4.968;2023-07-31T06:45:12;20.86;72.83
9861;DHT22;4969;52.304;4.968;2023-07-31T06:47:38;20.98;73.57
9861;DHT22;4969;52.304;4.968;2023-07-31T06:50:05;21.26;72.62
9861;DHT22;4969;52.304;4.968;2023-07-31T06:52:33;21.27;72.29
9861;DHT22;4969;52.304;4.968;2023-07-31T06:55:01;21.55;71.65
9861;DHT22;4969;52.304;4.968;2023-07-31T06:57:29;21.38;72.05
9861;DHT22;4969;52.304;4.968;2023-07-31T06:59:55;21.41;72.22
9861;DHT22;4969;52.304;4.968;2023-07-31T07:02:22;21.44;71.86
9861;DHT22;4969;52.304;4.968;2023-07-31T07:04:49;21.62;71.36
9861;DHT22;4969;52.304;4.968;2023-07-31T07:07:15;21.68;71.13
9861;DHT22;4969;52.304;4.968;2023-07-31T07:09:43;21.34;72.25
9861;DHT22;4969;52.304;4.968;2023-07-31T07:12:10;21.30;72.38
9861;DHT22;4969;52.304;4.968;2023-07-31T07:14:36;21.24;73.24
9861;DHT22;4969;52.304;4.968;2023-07-31T07:17:03;21.30;73.30
9861;DHT22;4969;52.304;4.968;2023-07-31T07:19:30;21.44;72.83
9861;DHT22;4969;52.304;4.968;2023-07-31T07:21:57;21.59;72.80
9861;DHT22;4969;52.304;4.968;2023-07-31T07:24:25;21.37;73.15
9861;DHT22;4969;52.304;4.968;2023-07-31T07:26:53;21.61;72.91
9861;DHT22;4969;52.304;4.968;2023-07-31T07:29:19;21.66;72.39
9861;DHT22;4969;52.304;4.968;2023-07-31T07:31:46;21.65;72.89
9861;DHT22;4969;52.304;4.968;2023-07-31T07:34:13;21.58;72.65
9861;DHT22;4969;52.304;4.968;2023-07-31T07:36:39;21.61;72.86
9861;DHT22;4969;52.304;4.968;2023-07-31T07:39:06;21.79;72.24
9861;DHT22;4969;52.304;4.968;2023-07-31T07:41:32;21.72;72.63
9861;DHT22;4969;52.304;4.968;2023-07-31T07:44:00;21.85;72.10
9861;DHT22;4969;52.304;4.968;2023-07-31T07:46:28;21.78;71.86
9861;DHT22;4969;52.304;4.968;2023-07-31T07:48:54;21.54;73.00
9861;DHT22;4969;52.304;4.968;2023-07-31T07:51:21;21.75;72.62
9861;DHT22;4969;52.304;4.968;2023-07-31T07:53:48;21.48;73.46
9861;DHT22;4969;52.304;4.968;2023-07-31T07:56:14;21.62;73.50
9861;DHT22;4969;52.304;4.968;2023-07-31T07:58:41;21.88;72.54
9861;DHT22;4969;52.304;4.968;2023-07-31T08:01:09;21.57;73.08
9861;DHT22;4969;52.304;4.968;2023-07-31T08:03:35;21.65;73.02
9861;DHT22;4969;52.304;4.968;2023-07-31T08:06:02;21.54;73.40
9861;DHT22;4969;52.304;4.968;2023-07-31T08:08:28;21.51;73.57
9861;DHT22;4969;52.304;4.968;2023-07-31T08:10:55;21.26;74.40
9861;DHT22;4969;52.304;4.968;2023-07-31T08:13:22;21.30;73.98
9861;DHT22;4969;52.304;4.968;2023-07-31T08:15:48;21.24;74.72
9861;DHT22;4969;52.304;4.968;2023-07-31T08:18:16;21.04;75.25
9861;DHT22;4969;52.304;4.968;2023-07-31T08:20:43;20.89;76.24
9861;DHT22;4969;52.304;4.968;2023-07-31T08:23:09;20.55;77.66
9861;DHT22;4969;52.304;4.968;2023-07-31T08:25:36;20.89;76.53
9861;DHT22;4969;52.304;4.968;2023-07-31T08:28:03;21.04;76.17
9861;DHT22;4969;52.304;4.968;2023-07-31T08:30:30;20.75;77.54
9861;DHT22;4969;52.304;4.968;2023-07-31T08:32:57;20.96;76.78
9861;DHT22;4969;52.304;4.968;2023-07-31T08:35:25;20.90;76.70
9861;DHT22;4969;52.304;4.968;2023-07-31T08:37:53;21.09;76.23
9861;DHT22;4969;52.304;4.968;2023-07-31T08:40:20;21.26;75.65
9861;DHT22;4969;52.304;4.968;2023-07-31T08:42:48;21.37;75.31
9861;DHT22;4969;52.304;4.968;2023-07-31T08:45:16;21.45;75.08
9861;DHT22;4969;52.304;4.968;2023-07-31T08:47:44;21.36;75.29
9861;DHT22;4969;52.304;4.968;2023-07-31T08:50:12;21.11;76.74
9861;DHT22;4969;52.304;4.968;2023-07-31T08:52:40;21.00;77.20
9861;DHT22;4969;52.304;4.968;2023-07-31T08:55:08;21.02;77.39
9861;DHT22;4969;52.304;4.968;2023-07-31T08:57:36;21.02;77.64
9861;DHT22;4969;52.304;4.968;2023-07-31T09:00:05;21.13;76.89
9861;DHT22;4969;52.304;4.968;2023-07-31T09:02:37;21.17;77.14
9861;DHT22;4969;52.304;4.968;2023-07-31T09:05:05;21.21;76.93
9861;DHT22;4969;52.304;4.968;2023-07-31T09:07:34;21.03;77.49
9861;DHT22;4969;52.304;4.968;2023-07-31T09:10:02;20.73;78.87
9861;DHT22;4969;52.304;4.968;2023-07-31T09:12:29;20.85;78.49
9861;DHT22;4969;52.304;4.968;2023-07-31T09:14:56;21.03;77.58
9861;DHT22;4969;52.304;4.968;2023-07-31T09:17:28;21.09;77.12
9861;DHT22;4969;52.304;4.968;2023-07-31T09:19:55;21.33;76.37
9861;DHT22;4969;52.304;4.968;2023-07-31T09:22:31;21.06;78.62
9861;DHT22;4969;52.304;4.968;2023-07-31T09:25:14;21.14;77.68
9861;DHT22;4969;52.304;4.968;2023-07-31T09:27:48;21.07;77.55
9861;DHT22;4969;52.304;4.968;2023-07-31T09:30:15;21.16;77.52
9861;DHT22;4969;52.304;4.968;2023-07-31T09:32:42;21.41;76.46
9861;DHT22;4969;52.304;4.968;2023-07-31T09:35:19;21.91;75.26
9861;DHT22;4969;52.304;4.968;2023-07-31T09:37:51;21.96;74.54
9861;DHT22;4969;52.304;4.968;2023-07-31T09:40:30;22.24;73.83
9861;DHT22;4969;52.304;4.968;2023-07-31T09:43:01;22.45;72.76
9861;DHT22;4969;52.304;4.968;2023-07-31T09:45:28;22.44;72.45
9861;DHT22;4969;52.304;4.968;2023-07-31T09:47:56;21.83;74.66
9861;DHT22;4969;52.304;4.968;2023-07-31T09:50:24;21.62;75.45
9861;DHT22;4969;52.304;4.968;2023-07-31T09:52:51;21.26;77.12
9861;DHT22;4969;52.304;4.968;2023-07-31T09:55:19;21.33;77.53
9861;DHT22;4969;52.304;4.968;2023-07-31T09:57:48;21.18;77.84
9861;DHT22;4969;52.304;4.968;2023-07-31T10:00:16;21.30;77.49
9861;DHT22;4969;52.304;4.968;2023-07-31T10:02:45;21.61;76.50
9861;DHT22;4969;52.304;4.968;2023-07-31T10:05:13;21.47;76.94
9861;DHT22;4969;52.304;4.968;2023-07-31T10:07:42;21.64;76.89
9861;DHT22;4969;52.304;4.968;2023-07-31T10:10:09;22.06;74.91
9861;DHT22;4969;52.304;4.968;2023-07-31T10:12:37;22.16;74.62
9861;DHT22;4969;52.304;4.968;2023-07-31T10:15:06;22.16;74.76
9861;DHT22;4969;52.304;4.968;2023-07-31T10:17:35;21.83;75.76
9861;DHT22;4969;52.304;4.968;2023-07-31T10:20:02;22.08;75.26
9861;DHT22;4969;52.304;4.968;2023-07-31T10:22:30;21.95;75.41
9861;DHT22;4969;52.304;4.968;2023-07-31T10:24:58;21.78;76.39
9861;DHT22;4969;52.304;4.968;2023-07-31T10:27:25;21.76;76.60
9861;DHT22;4969;52.304;4.968;2023-07-31T10:29:53;21.75;76.46
9861;DHT22;4969;52.304;4.968;2023-07-31T10:32:22;21.98;75.03
9861;DHT22;4969;52.304;4.968;2023-07-31T10:34:50;22.20;74.29
9861;DHT22;4969;52.304;4.968;2023-07-31T10:37:24;22.23;74.06
9861;DHT22;4969;52.304;4.968;2023-07-31T10:39:59;21.81;75.63
9861;DHT22;4969;52.304;4.968;2023-07-31T10:42:30;21.82;75.85
9861;DHT22;4969;52.304;4.968;2023-07-31T10:44:58;21.79;75.76
9861;DHT22;4969;52.304;4.968;2023-07-31T10:47:26;21.88;75.81
9861;DHT22;4969;52.304;4.968;2023-07-31T10:50:10;21.92;76.61
9861;DHT22;4969;52.304;4.968;2023-07-31T10:52:37;22.33;74.24
9861;DHT22;4969;52.304;4.968;2023-07-31T10:55:27;22.10;75.09
9861;DHT22;4969;52.304;4.968;2023-07-31T10:57:55;21.95;75.49
9861;DHT22;4969;52.304;4.968;2023-07-31T11:00:24;21.78;76.06
9861;DHT22;4969;52.304;4.968;2023-07-31T11:03:06;21.89;77.11
9861;DHT22;4969;52.304;4.968;2023-07-31T11:05:45;21.79;77.17
9861;DHT22;4969;52.304;4.968;2023-07-31T11:08:13;21.88;76.58
9861;DHT22;4969;52.304;4.968;2023-07-31T11:10:40;21.93;76.08
9861;DHT22;4969;52.304;4.968;2023-07-31T11:13:07;22.00;75.90
9861;DHT22;4969;52.304;4.968;2023-07-31T11:15:33;21.83;76.26
9861;DHT22;4969;52.304;4.968;2023-07-31T11:18:00;21.82;76.42
9861;DHT22;4969;52.304;4.968;2023-07-31T11:20:31;22.02;75.41
9861;DHT22;4969;52.304;4.968;2023-07-31T11:22:59;22.13;75.27
9861;DHT22;4969;52.304;4.968;2023-07-31T11:25:28;22.08;75.28
9861;DHT22;4969;52.304;4.968;2023-07-31T11:27:55;22.38;73.63
9861;DHT22;4969;52.304;4.968;2023-07-31T11:30:22;22.38;72.93
9861;DHT22;4969;52.304;4.968;2023-07-31T11:32:49;22.00;74.22
9861;DHT22;4969;52.304;4.968;2023-07-31T11:35:16;21.95;74.79
9861;DHT22;4969;52.304;4.968;2023-07-31T11:37:44;21.96;74.49
9861;DHT22;4969;52.304;4.968;2023-07-31T11:40:11;22.16;73.64
9861;DHT22;4969;52.304;4.968;2023-07-31T11:42:38;22.17;73.66
9861;DHT22;4969;52.304;4.968;2023-07-31T11:45:05;22.09;74.21
9861;DHT22;4969;52.304;4.968;2023-07-31T11:47:33;21.99;74.49
9861;DHT22;4969;52.304;4.968;2023-07-31T11:50:01;22.06;74.35
9861;DHT22;4969;52.304;4.968;2023-07-31T11:52:29;22.05;74.17
9861;DHT22;4969;52.304;4.968;2023-07-31T11:54:57;21.98;74.72
9861;DHT22;4969;52.304;4.968;2023-07-31T11:57:25;21.79;75.40
9861;DHT22;4969;52.304;4.968;2023-07-31T11:59:52;21.92;75.06
9861;DHT22;4969;52.304;4.968;2023-07-31T12:02:19;21.76;74.90
9861;DHT22;4969;52.304;4.968;2023-07-31T12:04:49;21.99;74.39
9861;DHT22;4969;52.304;4.968;2023-07-31T12:07:16;21.72;74.84
9861;DHT22;4969;52.304;4.968;2023-07-31T12:09:51;21.71;75.11
9861;DHT22;4969;52.304;4.968;2023-07-31T12:12:21;21.62;75.41
9861;DHT22;4969;52.304;4.968;2023-07-31T12:14:48;21.79;75.05
9861;DHT22;4969;52.304;4.968;2023-07-31T12:17:17;21.85;75.08
9861;DHT22;4969;52.304;4.968;2023-07-31T12:19:45;21.86;75.20
9861;DHT22;4969;52.304;4.968;2023-07-31T12:22:12;22.36;72.92
9861;DHT22;4969;52.304;4.968;2023-07-31T12:24:40;22.19;73.59
9861;DHT22;4969;52.304;4.968;2023-07-31T12:27:11;22.03;74.74
9861;DHT22;4969;52.304;4.968;2023-07-31T12:29:39;22.19;74.05
9861;DHT22;4969;52.304;4.968;2023-07-31T12:32:19;22.20;73.98
9861;DHT22;4969;52.304;4.968;2023-07-31T12:34:46;22.20;73.68
9861;DHT22;4969;52.304;4.968;2023-07-31T12:37:12;22.37;73.33
9861;DHT22;4969;52.304;4.968;2023-07-31T12:39:39;22.28;73.36
9861;DHT22;4969;52.304;4.968;2023-07-31T12:42:06;22.30;73.50
9861;DHT22;4969;52.304;4.968;2023-07-31T12:44:33;22.09;73.82
9861;DHT22;4969;52.304;4.968;2023-07-31T12:47:01;21.95;74.66
9861;DHT22;4969;52.304;4.968;2023-07-31T12:49:29;22.24;73.88
9861;DHT22;4969;52.304;4.968;2023-07-31T12:51:55;22.55;72.69
9861;DHT22;4969;52.304;4.968;2023-07-31T12:54:22;22.89;71.38
9861;DHT22;4969;52.304;4.968;2023-07-31T12:56:49;22.51;72.21
9861;DHT22;4969;52.304;4.968;2023-07-31T12:59:15;22.41;73.19
9861;DHT22;4969;52.304;4.968;2023-07-31T13:01:42;22.44;73.28
9861;DHT22;4969;52.304;4.968;2023-07-31T13:04:10;22.89;71.31
9861;DHT22;4969;52.304;4.968;2023-07-31T13:06:36;22.55;72.78
9861;DHT22;4969;52.304;4.968;2023-07-31T13:09:03;22.50;73.61
9861;DHT22;4969;52.304;4.968;2023-07-31T13:11:30;22.72;73.00
9861;DHT22;4969;52.304;4.968;2023-07-31T13:13:56;22.69;72.90
9861;DHT22;4969;52.304;4.968;2023-07-31T13:16:23;22.68;73.25
9861;DHT22;4969;52.304;4.968;2023-07-31T13:18:49;22.76;72.74
9861;DHT22;4969;52.304;4.968;2023-07-31T13:21:18;22.69;72.33
9861;DHT22;4969;52.304;4.968;2023-07-31T13:23:46;22.72;71.94
9861;DHT22;4969;52.304;4.968;2023-07-31T13:26:13;22.43;72.93
9861;DHT22;4969;52.304;4.968;2023-07-31T13:28:40;22.45;73.49
9861;DHT22;4969;52.304;4.968;2023-07-31T13:31:06;22.33;73.41
9861;DHT22;4969;52.304;4.968;2023-07-31T13:33:33;22.37;74.09
9861;DHT22;4969;52.304;4.968;2023-07-31T13:35:59;22.34;74.20
9861;DHT22;4969;52.304;4.968;2023-07-31T13:38:27;22.23;74.23
9861;DHT22;4969;52.304;4.968;2023-07-31T13:40:57;22.51;73.62
9861;DHT22;4969;52.304;4.968;2023-07-31T13:43:24;22.30;73.58
9861;DHT22;4969;52.304;4.968;2023-07-31T13:45:50;22.30;74.17
9861;DHT22;4969;52.304;4.968;2023-07-31T13:48:17;22.51;73.70
9861;DHT22;4969;52.304;4.968;2023-07-31T13:50:43;22.64;72.95
9861;DHT22;4969;52.304;4.968;2023-07-31T13:53:10;22.23;74.59
9861;DHT22;4969;52.304;4.968;2023-07-31T13:55:38;22.23;74.70
9861;DHT22;4969;52.304;4.968;2023-07-31T13:58:05;22.06;75.11
9861;DHT22;4969;52.304;4.968;2023-07-31T14:00:31;22.08;75.19
9861;DHT22;4969;52.304;4.968;2023-07-31T14:02:58;22.09;75.41
9861;DHT22;4969;52.304;4.968;2023-07-31T14:05:24;22.02;75.71
9861;DHT22;4969;52.304;4.968;2023-07-31T14:07:51;22.14;75.59
9861;DHT22;4969;52.304;4.968;2023-07-31T14:10:18;22.41;74.56
9861;DHT22;4969;52.304;4.968;2023-07-31T14:12:46;22.36;74.61
9861;DHT22;4969;52.304;4.968;2023-07-31T14:15:12;22.14;75.28
9861;DHT22;4969;52.304;4.968;2023-07-31T14:17:39;22.78;72.71
9861;DHT22;4969;52.304;4.968;2023-07-31T14:20:07;23.18;71.02
9861;DHT22;4969;52.304;4.968;2023-07-31T14:22:33;23.18;71.13
9861;DHT22;4969;52.304;4.968;2023-07-31T14:25:01;23.40;70.37
9861;DHT22;4969;52.304;4.968;2023-07-31T14:27:27;23.24;70.57
9861;DHT22;4969;52.304;4.968;2023-07-31T14:29:56;23.03;71.36
9861;DHT22;4969;52.304;4.968;2023-07-31T14:32:22;22.88;72.19
9861;DHT22;4969;52.304;4.968;2023-07-31T14:34:50;23.07;71.88
9861;DHT22;4969;52.304;4.968;2023-07-31T14:37:17;23.13;72.02
9861;DHT22;4969;52.304;4.968;2023-07-31T14:39:43;23.29;70.57
9861;DHT22;4969;52.304;4.968;2023-07-31T14:42:10;23.13;71.78
9861;DHT22;4969;52.304;4.968;2023-07-31T14:44:36;23.10;71.42
9861;DHT22;4969;52.304;4.968;2023-07-31T14:47:05;23.22;70.89
9861;DHT22;4969;52.304;4.968;2023-07-31T14:49:32;23.31;70.82
9861;DHT22;4969;52.304;4.968;2023-07-31T14:51:58;23.41;70.43
9861;DHT22;4969;52.304;4.968;2023-07-31T14:54:25;23.48;69.85
9861;DHT22;4969;52.304;4.968;2023-07-31T14:56:51;23.43;69.92
9861;DHT22;4969;52.304;4.968;2023-07-31T14:59:18;23.50;69.87
9861;DHT22;4969;52.304;4.968;2023-07-31T15:01:44;23.50;69.86
9861;DHT22;4969;52.304;4.968;2023-07-31T15:04:12;23.55;69.59
9861;DHT22;4969;52.304;4.968;2023-07-31T15:06:39;23.53;69.57
9861;DHT22;4969;52.304;4.968;2023-07-31T15:09:05;23.13;70.08
9861;DHT22;4969;52.304;4.968;2023-07-31T15:11:32;22.78;71.77
9861;DHT22;4969;52.304;4.968;2023-07-31T15:13:59;22.55;72.58
9861;DHT22;4969;52.304;4.968;2023-07-31T15:16:24;22.50;72.80
9861;DHT22;4969;52.304;4.968;2023-07-31T15:18:51;22.20;73.30
9861;DHT22;4969;52.304;4.968;2023-07-31T15:21:19;22.13;74.20
9861;DHT22;4969;52.304;4.968;2023-07-31T15:23:45;22.27;73.92
9861;DHT22;4969;52.304;4.968;2023-07-31T15:26:12;22.31;73.85
9861;DHT22;4969;52.304;4.968;2023-07-31T15:28:39;22.44;73.34
9861;DHT22;4969;52.304;4.968;2023-07-31T15:31:05;22.58;72.73
9861;DHT22;4969;52.304;4.968;2023-07-31T15:33:32;22.54;72.77
9861;DHT22;4969;52.304;4.968;2023-07-31T15:35:58;22.55;73.09
9861;DHT22;4969;52.304;4.968;2023-07-31T15:38:26;22.64;72.65
9861;DHT22;4969;52.304;4.968;2023-07-31T15:40:53;22.57;72.81
9861;DHT22;4969;52.304;4.968;2023-07-31T15:43:20;22.57;72.94
9861;DHT22;4969;52.304;4.968;2023-07-31T15:45:47;22.54;73.00
9861;DHT22;4969;52.304;4.968;2023-07-31T15:48:14;22.44;73.04
9861;DHT22;4969;52.304;4.968;2023-07-31T15:50:40;22.27;73.81
9861;DHT22;4969;52.304;4.968;2023-07-31T15:53:07;22.27;73.98
9861;DHT22;4969;52.304;4.968;2023-07-31T15:55:35;22.10;74.42
9861;DHT22;4969;52.304;4.968;2023-07-31T15:58:01;21.91;75.43
9861;DHT22;4969;52.304;4.968;2023-07-31T16:00:28;22.06;74.92
9861;DHT22;4969;52.304;4.968;2023-07-31T16:02:55;22.00;75.20
9861;DHT22;4969;52.304;4.968;2023-07-31T16:05:21;21.89;75.40